Time;durP1;ratioP1;P1;durP2;ratioP2;P2;SDS_P1;SDS_P2;PMS_P1;PMS_P2;Temp;Humidity;BMP_temperature;BMP_pressure;BME280_temperature;BME280_humidity;BME280_pressure;Samples;Min_cycle;Max_cycle;Signal;HPM_P1;HPM_P2
2023/08/30 00:00:21;;;;;;;12.33;10.57;;;18.00;99.90;;;;;;4953247;28;20230;-76
2023/08/30 00:02:47;;;;;;;11.83;10.70;;;18.00;99.90;;;;;;4960587;28;20600;-76
2023/08/30 00:05:13;;;;;;;10.60;9.60;;;18.00;99.90;;;;;;4968858;28;20729;-76
2023/08/30 00:07:39;;;;;;;11.10;9.90;;;18.00;99.90;;;;;;4954576;29;20600;-76
2023/08/30 00:10:07;;;;;;;10.37;9.37;;;18.00;99.90;;;;;;4954626;29;20618;-76
2023/08/30 00:12:33;;;;;;;9.70;8.80;;;18.10;99.90;;;;;;4952199;29;20978;-76
2023/08/30 00:14:59;;;;;;;8.90;8.10;;;18.00;99.90;;;;;;4930824;29;20632;-76
2023/08/30 00:17:24;;;;;;;8.97;8.07;;;18.00;99.90;;;;;;4935021;29;20932;-75
2023/08/30 00:19:52;;;;;;;10.80;9.27;;;18.10;99.90;;;;;;4949113;29;20189;-75
2023/08/30 00:22:18;;;;;;;8.90;8.00;;;18.10;99.90;;;;;;4954242;29;20180;-75
2023/08/30 00:24:45;;;;;;;10.83;9.97;;;18.10;99.90;;;;;;4954320;29;20722;-75
2023/08/30 00:27:12;;;;;;;9.53;8.60;;;18.10;99.90;;;;;;4945140;29;20600;-75
2023/08/30 00:29:37;;;;;;;10.40;8.17;;;18.10;99.90;;;;;;4937879;29;20598;-76
2023/08/30 00:32:04;;;;;;;9.00;8.10;;;18.10;99.90;;;;;;4934712;29;21232;-76
2023/08/30 00:34:29;;;;;;;12.10;8.67;;;18.20;99.90;;;;;;4947364;29;20632;-75
2023/08/30 00:36:55;;;;;;;9.13;8.23;;;18.20;99.90;;;;;;4932130;29;20616;-75
2023/08/30 00:39:21;;;;;;;8.10;7.40;;;18.20;99.90;;;;;;4938785;29;20200;-75
2023/08/30 00:41:47;;;;;;;10.13;8.57;;;18.30;99.90;;;;;;4939795;29;20196;-75
2023/08/30 00:44:13;;;;;;;7.43;6.80;;;18.30;99.90;;;;;;4947427;29;21161;-74
2023/08/30 00:46:39;;;;;;;8.33;7.53;;;18.30;99.90;;;;;;4941024;29;20392;-75
2023/08/30 00:49:06;;;;;;;8.50;7.57;;;18.30;99.90;;;;;;4938666;28;20634;-75
2023/08/30 00:51:32;;;;;;;8.63;7.83;;;18.40;99.90;;;;;;4930607;29;20607;-75
2023/08/30 00:53:59;;;;;;;8.10;7.10;;;18.40;99.90;;;;;;4938261;29;20718;-74
2023/08/30 00:56:27;;;;;;;7.97;7.20;;;18.40;99.90;;;;;;4940235;29;20637;-74
2023/08/30 00:58:54;;;;;;;7.13;6.53;;;18.40;99.90;;;;;;4935089;28;20617;-75
2023/08/30 01:01:20;;;;;;;7.20;6.60;;;18.40;99.90;;;;;;4951987;29;21308;-75
2023/08/30 01:03:45;;;;;;;6.93;6.23;;;18.40;99.90;;;;;;4953952;29;20603;-75
2023/08/30 01:06:13;;;;;;;7.67;6.97;;;18.40;99.90;;;;;;4943734;29;20644;-75
2023/08/30 01:08:41;;;;;;;7.83;6.50;;;18.30;99.90;;;;;;4944072;28;20619;-75
2023/08/30 01:11:36;;;;;;;9.30;6.00;;;18.30;99.90;;;;;;4953403;28;20595;-77
2023/08/30 01:14:09;;;;;;;5.30;4.80;;;18.30;99.90;;;;;;4951173;28;20656;-75
2023/08/30 01:16:38;;;;;;;9.70;5.90;;;18.30;99.90;;;;;;4933421;29;20627;-75
2023/08/30 01:19:25;;;;;;;5.53;5.03;;;18.30;99.90;;;;;;4934853;29;20657;-75
2023/08/30 01:22:05;;;;;;;6.90;6.20;;;18.30;99.90;;;;;;4932622;29;20930;-74
2023/08/30 01:24:45;;;;;;;6.70;5.30;;;18.40;99.90;;;;;;4947511;29;20584;-75
2023/08/30 01:27:13;;;;;;;4.67;4.10;;;18.30;99.90;;;;;;4950097;29;20659;-75
2023/08/30 01:29:43;;;;;;;6.63;5.93;;;18.40;99.90;;;;;;4942522;29;20656;-75
2023/08/30 01:32:09;;;;;;;6.80;5.87;;;18.40;99.90;;;;;;4948273;29;20602;-75
2023/08/30 01:34:40;;;;;;;6.40;5.30;;;18.40;99.90;;;;;;4937409;29;20607;-76
2023/08/30 01:37:09;;;;;;;6.90;5.30;;;18.40;99.90;;;;;;4947721;29;20596;-78
2023/08/30 01:39:40;;;;;;;6.07;5.30;;;18.40;99.90;;;;;;4937201;29;20584;-76
2023/08/30 01:42:08;;;;;;;6.47;5.87;;;18.40;99.90;;;;;;4957589;28;20596;-76
2023/08/30 01:44:34;;;;;;;6.50;5.00;;;18.40;99.90;;;;;;4939702;29;20596;-76
2023/08/30 01:47:00;;;;;;;5.27;4.77;;;18.40;99.90;;;;;;4898533;29;20593;-76
2023/08/30 01:49:32;;;;;;;6.13;5.27;;;18.40;99.90;;;;;;4950569;29;20576;-76
2023/08/30 01:51:58;;;;;;;6.23;4.83;;;18.40;99.90;;;;;;4946542;28;20596;-76
2023/08/30 01:54:25;;;;;;;5.40;4.90;;;18.40;99.90;;;;;;4938725;29;20601;-76
2023/08/30 01:56:50;;;;;;;5.97;5.47;;;18.40;99.90;;;;;;4946508;29;20592;-76
2023/08/30 01:59:16;;;;;;;6.43;5.03;;;18.40;99.90;;;;;;4952727;29;20623;-76
2023/08/30 02:01:42;;;;;;;9.07;5.43;;;18.30;99.90;;;;;;4952611;29;20589;-77
2023/08/30 02:04:08;;;;;;;4.87;4.37;;;18.30;99.90;;;;;;4952639;28;20188;-76
2023/08/30 02:06:48;;;;;;;4.60;4.03;;;18.30;99.90;;;;;;4952197;28;20291;-76
2023/08/30 02:09:39;;;;;;;6.17;4.80;;;18.30;99.90;;;;;;4952529;29;20234;-76
2023/08/30 02:12:12;;;;;;;5.27;4.77;;;18.20;99.90;;;;;;4952229;29;20679;-76
2023/08/30 02:14:39;;;;;;;6.00;5.40;;;18.30;99.90;;;;;;4952466;28;20627;-76
2023/08/30 02:17:05;;;;;;;6.00;5.40;;;18.20;99.90;;;;;;4953568;28;20627;-76
2023/08/30 02:19:33;;;;;;;8.37;6.37;;;18.20;99.90;;;;;;4953408;29;20686;-76
2023/08/30 02:21:59;;;;;;;6.87;6.20;;;18.10;99.90;;;;;;4952286;29;20599;-76
2023/08/30 02:24:25;;;;;;;6.57;5.07;;;18.10;99.90;;;;;;4952354;29;20591;-76
2023/08/30 02:26:50;;;;;;;6.40;5.80;;;18.00;99.90;;;;;;4951406;28;20991;-76
2023/08/30 02:29:16;;;;;;;5.97;4.93;;;18.00;99.90;;;;;;4941666;29;20184;-76
2023/08/30 02:31:42;;;;;;;6.70;5.50;;;17.90;99.90;;;;;;4945905;29;20267;-77
2023/08/30 02:34:08;;;;;;;6.50;5.90;;;17.90;99.90;;;;;;4951947;29;20866;-76
2023/08/30 02:36:33;;;;;;;5.93;5.20;;;17.80;99.90;;;;;;4951714;29;20620;-75
2023/08/30 02:38:59;;;;;;;6.10;5.50;;;17.70;99.90;;;;;;4951771;29;20762;-75
2023/08/30 02:41:25;;;;;;;5.73;5.20;;;17.70;99.90;;;;;;4952786;28;20181;-75
2023/08/30 02:43:50;;;;;;;6.10;5.50;;;17.70;99.90;;;;;;4928077;29;20180;-75
2023/08/30 02:46:18;;;;;;;6.50;5.90;;;17.70;99.90;;;;;;4951367;29;20682;-75
2023/08/30 02:48:44;;;;;;;7.10;6.00;;;17.60;99.90;;;;;;4951976;28;20622;-75
2023/08/30 02:51:10;;;;;;;6.80;5.90;;;17.60;99.90;;;;;;4952011;28;20588;-75
2023/08/30 02:53:36;;;;;;;6.37;5.80;;;17.50;99.90;;;;;;4951628;28;20732;-75
2023/08/30 02:56:01;;;;;;;6.23;5.70;;;17.50;99.90;;;;;;4954030;29;20216;-75
2023/08/30 02:58:27;;;;;;;6.30;5.70;;;17.40;99.90;;;;;;4943846;29;20176;-75
2023/08/30 03:00:58;;;;;;;6.43;5.80;;;17.40;99.90;;;;;;4951617;28;20181;-75
2023/08/30 03:03:23;;;;;;;7.33;6.00;;;17.30;99.90;;;;;;4943781;29;20603;-74
2023/08/30 03:05:49;;;;;;;7.60;6.27;;;17.20;99.90;;;;;;4951461;29;20212;-75
2023/08/30 03:08:15;;;;;;;6.50;5.90;;;17.20;99.90;;;;;;4951509;29;20187;-76
2023/08/30 03:10:40;;;;;;;6.70;5.97;;;17.10;99.90;;;;;;4951814;29;20183;-75
2023/08/30 03:13:07;;;;;;;8.03;5.50;;;17.10;99.90;;;;;;4950832;28;20212;-75
2023/08/30 03:15:33;;;;;;;6.47;5.87;;;17.00;99.90;;;;;;4943615;29;20619;-75
2023/08/30 03:18:00;;;;;;;6.63;6.07;;;16.90;99.90;;;;;;4937897;28;20734;-75
2023/08/30 03:20:28;;;;;;;8.30;5.60;;;16.90;99.90;;;;;;4951277;28;20588;-75
2023/08/30 03:22:57;;;;;;;6.33;5.40;;;16.80;99.90;;;;;;4946498;29;20934;-75
2023/08/30 03:25:24;;;;;;;7.13;6.40;;;16.80;99.90;;;;;;4932029;29;20636;-75
2023/08/30 03:27:49;;;;;;;7.77;6.00;;;16.70;99.90;;;;;;4942005;29;20603;-76
2023/08/30 03:30:15;;;;;;;6.10;5.37;;;16.70;99.90;;;;;;4941611;29;20584;-75
2023/08/30 03:32:42;;;;;;;7.70;5.33;;;16.70;99.90;;;;;;4952550;29;20207;-75
2023/08/30 03:35:08;;;;;;;6.53;5.50;;;16.60;99.90;;;;;;4930954;29;20721;-75
2023/08/30 03:37:34;;;;;;;6.03;5.47;;;16.60;99.90;;;;;;4933054;29;20252;-75
2023/08/30 03:40:01;;;;;;;9.03;6.60;;;16.60;99.90;;;;;;4930608;29;20597;-76
2023/08/30 03:42:26;;;;;;;7.30;5.40;;;16.50;99.90;;;;;;4940126;29;20588;-76
2023/08/30 03:44:52;;;;;;;6.50;5.70;;;16.50;99.90;;;;;;4937938;29;20691;-76
2023/08/30 03:47:18;;;;;;;5.53;5.03;;;16.50;99.90;;;;;;4927760;29;20195;-76
2023/08/30 03:49:44;;;;;;;7.10;6.27;;;16.50;99.90;;;;;;4951826;28;20243;-76
2023/08/30 03:52:10;;;;;;;7.17;6.27;;;16.50;99.90;;;;;;4952876;28;20185;-76
2023/08/30 03:54:36;;;;;;;6.97;6.03;;;16.50;99.90;;;;;;4952833;28;20991;-75
2023/08/30 03:57:02;;;;;;;6.00;5.40;;;16.50;99.90;;;;;;4952763;28;20192;-77
2023/08/30 03:59:28;;;;;;;7.33;5.70;;;16.50;99.90;;;;;;4952841;28;20611;-75
2023/08/30 04:01:54;;;;;;;6.63;5.97;;;16.40;99.90;;;;;;4954133;28;20630;-77
2023/08/30 04:04:23;;;;;;;7.17;6.13;;;16.40;99.90;;;;;;4953341;29;20254;-75
2023/08/30 04:06:49;;;;;;;7.37;5.80;;;16.40;99.90;;;;;;4950751;28;20719;-75
2023/08/30 04:09:15;;;;;;;7.67;6.77;;;16.40;99.90;;;;;;4936172;29;20971;-76
2023/08/30 04:11:42;;;;;;;7.73;6.00;;;16.30;99.90;;;;;;4938364;29;20607;-76
2023/08/30 04:14:08;;;;;;;6.53;5.87;;;16.30;99.90;;;;;;4954344;28;20640;-76
2023/08/30 04:16:34;;;;;;;7.60;6.30;;;16.30;99.90;;;;;;4954255;28;20620;-76
2023/08/30 04:19:00;;;;;;;6.70;6.03;;;16.30;99.90;;;;;;4954531;28;20584;-77
2023/08/30 04:21:26;;;;;;;7.43;6.83;;;16.30;99.90;;;;;;4939982;28;20276;-76
2023/08/30 04:23:52;;;;;;;7.50;6.83;;;16.20;99.90;;;;;;4939473;29;20739;-76
2023/08/30 04:26:18;;;;;;;9.47;6.40;;;16.20;99.90;;;;;;4954084;29;20760;-76
2023/08/30 04:28:44;;;;;;;8.57;7.87;;;16.20;99.90;;;;;;4945695;28;20329;-76
2023/08/30 04:31:10;;;;;;;7.17;5.73;;;16.10;99.90;;;;;;4949708;29;21388;-76
2023/08/30 04:33:36;;;;;;;7.53;6.10;;;16.10;99.90;;;;;;4954304;29;20647;-76
2023/08/30 04:36:04;;;;;;;10.00;6.27;;;16.10;99.90;;;;;;4953938;28;20208;-75
2023/08/30 04:38:29;;;;;;;7.50;6.20;;;16.10;99.90;;;;;;4954271;28;20926;-76
2023/08/30 04:41:00;;;;;;;6.20;5.60;;;16.10;99.90;;;;;;4954388;28;20588;-75
2023/08/30 04:43:30;;;;;;;7.10;6.40;;;16.00;99.90;;;;;;4938452;29;21002;-76
2023/08/30 04:45:56;;;;;;;8.20;7.40;;;16.10;99.90;;;;;;4938851;28;20632;-76
2023/08/30 04:48:24;;;;;;;8.00;6.70;;;16.10;99.90;;;;;;4934735;29;20691;-77
2023/08/30 04:51:02;;;;;;;5.33;4.83;;;16.10;99.90;;;;;;4947568;29;20954;-76
2023/08/30 04:53:28;;;;;;;8.70;6.27;;;16.10;99.90;;;;;;4953835;29;20643;-76
2023/08/30 04:55:55;;;;;;;6.77;6.10;;;16.10;99.90;;;;;;4953335;28;21030;-76
2023/08/30 04:58:21;;;;;;;6.87;6.17;;;16.10;99.90;;;;;;4937819;28;20588;-76
2023/08/30 05:00:47;;;;;;;6.93;6.00;;;16.10;99.90;;;;;;4953809;29;20659;-76
2023/08/30 05:03:13;;;;;;;7.77;6.40;;;16.10;99.90;;;;;;4937920;29;20187;-76
2023/08/30 05:05:38;;;;;;;6.33;5.67;;;16.10;99.90;;;;;;4938786;28;20624;-76
2023/08/30 05:08:04;;;;;;;6.10;5.60;;;16.10;99.90;;;;;;4934271;28;20272;-77
2023/08/30 05:10:32;;;;;;;6.97;6.27;;;16.20;99.90;;;;;;4951218;29;20180;-75
2023/08/30 05:12:58;;;;;;;6.07;5.30;;;16.20;99.90;;;;;;4953322;29;21287;-75
2023/08/30 05:15:23;;;;;;;7.13;6.53;;;16.20;99.90;;;;;;4953555;28;20615;-76
2023/08/30 05:17:50;;;;;;;6.27;5.60;;;16.30;99.90;;;;;;4949046;28;20188;-75
2023/08/30 05:20:15;;;;;;;6.70;6.10;;;16.30;99.90;;;;;;4944751;29;20584;-75
2023/08/30 05:22:41;;;;;;;7.20;6.50;;;16.30;99.90;;;;;;4947218;29;20665;-76
2023/08/30 05:25:07;;;;;;;6.70;5.83;;;16.40;99.90;;;;;;4943923;28;20627;-76
2023/08/30 05:27:34;;;;;;;4.90;4.37;;;16.40;99.90;;;;;;4938576;29;20402;-76
2023/08/30 05:29:59;;;;;;;6.07;5.47;;;16.40;99.90;;;;;;4942403;28;20627;-76
2023/08/30 05:32:25;;;;;;;5.93;4.80;;;16.40;99.90;;;;;;4914036;29;20747;-76
2023/08/30 05:35:29;;;;;;;5.77;5.27;;;16.50;99.90;;;;;;4914209;29;20216;-76
2023/08/30 05:38:13;;;;;;;6.03;5.33;;;16.50;99.90;;;;;;4897453;29;20729;-76
2023/08/30 05:40:58;;;;;;;6.10;5.03;;;16.50;99.90;;;;;;4934908;29;20604;-75
2023/08/30 05:43:24;;;;;;;5.83;4.80;;;16.50;99.90;;;;;;4952930;29;21156;-75
2023/08/30 05:45:50;;;;;;;5.13;4.63;;;16.50;99.90;;;;;;4952915;28;20207;-75
2023/08/30 05:48:15;;;;;;;6.97;6.33;;;16.50;99.90;;;;;;4952696;29;20181;-78
2023/08/30 05:50:41;;;;;;;6.00;4.97;;;16.60;99.90;;;;;;4933070;29;20212;-77
2023/08/30 05:53:07;;;;;;;8.77;6.57;;;16.60;99.90;;;;;;4952694;28;20216;-76
2023/08/30 05:55:33;;;;;;;5.93;5.33;;;16.50;99.90;;;;;;4942675;28;21224;-76
2023/08/30 05:57:59;;;;;;;7.40;6.63;;;16.60;99.90;;;;;;4934092;29;20529;-78
2023/08/30 06:00:25;;;;;;;6.10;5.50;;;16.60;99.90;;;;;;4949307;28;20635;-78
2023/08/30 06:02:52;;;;;;;6.70;6.13;;;16.60;99.90;;;;;;4936491;29;20181;-77
2023/08/30 06:05:18;;;;;;;5.80;5.20;;;16.60;99.90;;;;;;4952440;29;20624;-78
2023/08/30 06:07:53;;;;;;;6.10;5.60;;;16.70;99.90;;;;;;4951525;28;20596;-83
2023/08/30 06:10:19;;;;;;;6.60;5.93;;;16.70;99.90;;;;;;4969554;29;20604;-81
2023/08/30 06:12:45;;;;;;;7.70;5.50;;;16.80;99.90;;;;;;4937319;29;20668;-80
2023/08/30 06:15:11;;;;;;;6.30;5.70;;;16.80;99.90;;;;;;4950561;29;20197;-81
2023/08/30 06:17:36;;;;;;;6.50;5.90;;;16.90;99.90;;;;;;4947850;29;20169;-81
2023/08/30 06:20:03;;;;;;;7.27;6.50;;;17.00;99.90;;;;;;4951162;29;20173;-82
2023/08/30 06:22:28;;;;;;;7.10;6.40;;;17.20;99.90;;;;;;4956361;28;20184;-81
2023/08/30 06:24:54;;;;;;;6.57;5.97;;;17.30;99.90;;;;;;4957611;28;21189;-81
2023/08/30 06:27:20;;;;;;;8.43;4.73;;;17.40;99.90;;;;;;4962988;29;20567;-81
2023/08/30 06:29:46;;;;;;;10.57;7.13;;;17.40;99.90;;;;;;4949006;29;20193;-80
2023/08/30 06:32:11;;;;;;;7.57;6.77;;;17.50;99.90;;;;;;4941486;29;21157;-80
2023/08/30 06:34:37;;;;;;;6.23;5.63;;;17.50;99.90;;;;;;4952835;29;20180;-81
2023/08/30 06:37:03;;;;;;;8.27;5.43;;;17.70;99.90;;;;;;4950914;29;20196;-81
2023/08/30 06:39:36;;;;;;;6.23;5.73;;;18.10;99.90;;;;;;4950772;29;20177;-81
2023/08/30 06:42:03;;;;;;;6.93;6.20;;;18.50;99.90;;;;;;4948870;29;20210;-80
2023/08/30 06:44:29;;;;;;;5.97;5.47;;;19.00;99.90;;;;;;4958850;29;20601;-81
2023/08/30 06:46:56;;;;;;;6.10;5.50;;;19.60;99.90;;;;;;4957498;29;20681;-81
2023/08/30 06:49:22;;;;;;;6.10;4.77;;;20.30;99.90;;;;;;4961889;29;20592;-82
2023/08/30 06:51:48;;;;;;;7.07;4.30;;;20.90;99.90;;;;;;4974631;29;20583;-80
2023/08/30 06:54:14;;;;;;;4.77;3.70;;;21.50;99.90;;;;;;4969860;28;20660;-81
2023/08/30 06:56:40;;;;;;;4.40;3.50;;;22.30;99.90;;;;;;4959242;29;20244;-79
2023/08/30 06:59:05;;;;;;;4.80;3.27;;;22.90;99.90;;;;;;4961310;29;20200;-82
2023/08/30 08:44:43;;;;;;;2.60;1.20;;;28.90;94.70;;;;;;5066820;28;20679;-75
2023/08/30 08:47:09;;;;;;;3.10;1.40;;;29.90;95.80;;;;;;5050620;28;20626;-76
2023/08/30 08:49:35;;;;;;;2.30;1.10;;;30.80;95.60;;;;;;5023666;28;20596;-74
2023/08/30 08:52:01;;;;;;;2.83;1.40;;;31.30;93.70;;;;;;5059333;28;20654;-74
2023/08/30 08:54:27;;;;;;;1.90;1.30;;;31.60;92.10;;;;;;5048832;28;20177;-75
2023/08/30 08:57:12;;;;;;;2.90;1.10;;;31.80;90.60;;;;;;5062682;23;20684;-76
2023/08/30 08:59:38;;;;;;;2.33;1.10;;;32.20;89.30;;;;;;5026710;28;20586;-75
2023/08/30 09:02:04;;;;;;;2.80;1.20;;;32.40;86.90;;;;;;5014508;28;20663;-73
2023/08/30 09:04:32;;;;;;;2.37;0.90;;;32.80;86.10;;;;;;5013996;28;20651;-76
2023/08/30 09:07:00;;;;;;;2.53;1.30;;;33.10;82.90;;;;;;4996142;28;20964;-75
2023/08/30 09:09:26;;;;;;;2.00;1.10;;;33.20;80.40;;;;;;4997334;28;20589;-74
2023/08/30 09:11:52;;;;;;;2.63;1.17;;;33.10;77.60;;;;;;4998244;28;20572;-74
2023/08/30 09:14:20;;;;;;;2.20;1.20;;;33.00;75.30;;;;;;4996116;28;20268;-74
2023/08/30 09:16:55;;;;;;;2.03;1.10;;;32.70;73.80;;;;;;4998965;28;20707;-75
2023/08/30 09:19:22;;;;;;;2.60;1.20;;;32.40;70.30;;;;;;4993133;28;20197;-75
2023/08/30 09:21:54;;;;;;;2.20;1.00;;;31.80;70.10;;;;;;4978658;28;20613;-73
2023/08/30 09:24:21;;;;;;;3.10;1.20;;;31.20;69.00;;;;;;4961666;28;20682;-73
2023/08/30 09:26:52;;;;;;;2.90;1.20;;;30.50;68.70;;;;;;4957196;28;20623;-74
2023/08/30 09:29:19;;;;;;;2.97;1.13;;;29.80;69.10;;;;;;4957178;28;20610;-74
2023/08/30 09:31:45;;;;;;;2.33;1.17;;;29.20;69.40;;;;;;4984433;28;20587;-74
2023/08/30 09:34:11;;;;;;;3.07;1.20;;;28.60;70.40;;;;;;4993550;28;20575;-74
2023/08/30 09:36:39;;;;;;;3.17;1.53;;;28.10;71.40;;;;;;4976059;28;20606;-73
2023/08/30 09:39:12;;;;;;;2.30;1.67;;;27.70;72.40;;;;;;4976263;28;20175;-74
2023/08/30 09:41:49;;;;;;;2.83;1.20;;;27.30;73.40;;;;;;4959777;28;20594;-74
2023/08/30 09:44:20;;;;;;;3.10;1.10;;;27.00;74.40;;;;;;4975863;28;20706;-74
2023/08/30 09:46:53;;;;;;;4.50;1.60;;;26.70;75.30;;;;;;4983834;28;20615;-74
2023/08/30 09:49:24;;;;;;;2.30;1.33;;;26.50;76.10;;;;;;4956701;28;20584;-74
2023/08/30 09:51:51;;;;;;;3.03;1.40;;;26.30;76.70;;;;;;4973815;28;20591;-74
2023/08/30 09:54:28;;;;;;;2.10;1.03;;;26.10;77.10;;;;;;4974741;28;20602;-74
2023/08/30 09:56:57;;;;;;;2.67;1.30;;;26.00;77.60;;;;;;4958158;28;20634;-74
2023/08/30 09:59:23;;;;;;;2.50;1.33;;;25.80;78.10;;;;;;4960803;28;20634;-75
2023/08/30 10:01:52;;;;;;;3.37;1.10;;;25.70;78.60;;;;;;4960088;28;20583;-74
2023/08/30 10:04:19;;;;;;;2.10;1.00;;;25.60;79.40;;;;;;4959930;28;20698;-74
2023/08/30 10:06:46;;;;;;;1.87;1.10;;;25.50;79.80;;;;;;4960235;28;20992;-75
2023/08/30 10:09:12;;;;;;;2.83;1.20;;;25.40;80.20;;;;;;4975738;28;20625;-74
2023/08/30 10:11:59;;;;;;;;;;;;;;;;;;;;;
2023/08/30 10:14:56;;;;;;;2.23;1.03;;;25.10;80.80;;;;;;4948159;28;20591;-73
2023/08/30 10:17:31;;;;;;;2.63;1.30;;;24.90;80.90;;;;;;4975022;28;20614;-73
2023/08/30 10:19:58;;;;;;;2.17;1.07;;;24.80;81.70;;;;;;4975131;28;20961;-73
2023/08/30 10:22:25;;;;;;;1.93;1.03;;;24.70;82.10;;;;;;4995835;28;20603;-73
2023/08/30 10:25:04;;;;;;;2.80;1.00;;;24.50;82.60;;;;;;4965298;28;20634;-73
2023/08/30 10:27:33;;;;;;;2.03;1.20;;;24.40;83.30;;;;;;4970931;28;20626;-74
2023/08/30 10:30:02;;;;;;;3.43;1.40;;;24.30;83.20;;;;;;4955494;28;20606;-73
2023/08/30 10:32:28;;;;;;;2.87;1.30;;;24.10;83.80;;;;;;4973120;28;20982;-74
2023/08/30 10:34:53;;;;;;;2.40;1.30;;;24.00;84.10;;;;;;4955640;28;20595;-73
2023/08/30 10:37:24;;;;;;;3.10;1.47;;;23.90;84.70;;;;;;4989831;28;20199;-75
2023/08/30 10:39:50;;;;;;;2.80;1.40;;;23.80;85.20;;;;;;4974876;28;20195;-73
2023/08/30 10:42:17;;;;;;;4.90;2.20;;;23.60;85.30;;;;;;4955458;28;20631;-73
2023/08/30 10:44:50;;;;;;;3.30;2.20;;;23.50;86.10;;;;;;4955364;28;21016;-74
2023/08/30 10:47:28;;;;;;;2.83;1.70;;;23.30;87.20;;;;;;4956091;28;20607;-74
2023/08/30 10:49:55;;;;;;;2.00;1.33;;;23.10;87.80;;;;;;4939371;28;20575;-72
2023/08/30 10:52:22;;;;;;;3.13;1.70;;;23.00;88.20;;;;;;4972668;28;20596;-73
2023/08/30 10:54:48;;;;;;;5.80;2.50;;;23.00;88.60;;;;;;4941172;28;20706;-74
2023/08/30 10:57:26;;;;;;;2.87;2.30;;;22.90;89.30;;;;;;5001171;28;20649;-75
2023/08/30 11:00:09;;;;;;;2.30;1.43;;;22.80;89.70;;;;;;4971558;28;21020;-75
2023/08/30 11:02:35;;;;;;;3.43;1.20;;;22.70;90.40;;;;;;4983257;28;20583;-74
2023/08/30 11:05:03;;;;;;;11.63;6.57;;;22.60;90.20;;;;;;4990153;28;20698;-73
2023/08/30 11:07:29;;;;;;;5.83;3.73;;;22.60;90.80;;;;;;4958215;28;20609;-74
2023/08/30 11:09:55;;;;;;;5.43;2.80;;;22.50;91.70;;;;;;4989186;28;20586;-74
2023/08/30 11:12:22;;;;;;;2.00;1.10;;;22.30;92.30;;;;;;4939313;28;20681;-74
2023/08/30 11:14:48;;;;;;;3.70;1.40;;;22.00;92.90;;;;;;4972197;28;20607;-74
2023/08/30 11:17:17;;;;;;;4.23;1.77;;;21.70;93.60;;;;;;4977484;28;20635;-73
2023/08/30 11:19:43;;;;;;;3.23;1.10;;;21.40;94.60;;;;;;4952626;28;20603;-74
2023/08/30 11:22:09;;;;;;;4.10;1.20;;;21.10;95.30;;;;;;4974035;28;20598;-74
2023/08/30 11:24:35;;;;;;;3.30;1.73;;;20.80;96.50;;;;;;4975860;28;20641;-73
2023/08/30 11:27:01;;;;;;;3.87;2.30;;;20.60;98.00;;;;;;4954770;28;20611;-73
2023/08/30 11:29:27;;;;;;;3.80;2.10;;;20.30;98.80;;;;;;4971052;28;20176;-74
2023/08/30 11:31:53;;;;;;;4.80;2.90;;;20.10;99.90;;;;;;4974120;28;20944;-73
2023/08/30 11:34:41;;;;;;;4.10;2.00;;;19.90;99.90;;;;;;4995373;28;20586;-73
2023/08/30 11:37:07;;;;;;;7.47;4.23;;;19.70;99.90;;;;;;4956299;28;20195;-73
2023/08/30 11:39:34;;;;;;;9.50;4.60;;;19.50;99.90;;;;;;4955868;28;20587;-74
2023/08/30 11:41:59;;;;;;;6.10;3.83;;;19.40;99.90;;;;;;4972100;28;21114;-73
2023/08/30 11:44:28;;;;;;;3.43;2.37;;;19.30;99.90;;;;;;4954620;28;20638;-71
2023/08/30 11:46:59;;;;;;;4.80;3.10;;;19.30;99.90;;;;;;4988687;28;20202;-73
2023/08/30 11:49:24;;;;;;;4.40;2.20;;;19.20;99.90;;;;;;4991353;28;20573;-72
2023/08/30 11:51:52;;;;;;;3.80;2.43;;;19.20;99.90;;;;;;4964585;28;21133;-72
2023/08/30 11:54:20;;;;;;;4.23;3.60;;;19.20;99.90;;;;;;4979947;28;20595;-73
2023/08/30 11:56:46;;;;;;;7.43;5.30;;;19.20;99.90;;;;;;4962824;28;21233;-73
2023/08/30 11:59:21;;;;;;;7.40;5.50;;;19.10;99.90;;;;;;4973548;28;20688;-73
2023/08/30 12:01:49;;;;;;;11.97;5.60;;;19.10;99.90;;;;;;4957010;28;20605;-74
2023/08/30 12:04:15;;;;;;;6.73;4.93;;;19.10;99.90;;;;;;4976109;28;21138;-73
2023/08/30 12:06:41;;;;;;;7.10;5.57;;;19.10;99.90;;;;;;4991174;28;20611;-74
2023/08/30 12:09:13;;;;;;;8.47;3.87;;;19.00;99.90;;;;;;4974025;28;20587;-74
2023/08/30 12:11:38;;;;;;;5.00;2.63;;;19.10;99.90;;;;;;4992457;28;20624;-73
2023/08/30 12:14:04;;;;;;;4.30;2.63;;;19.10;99.90;;;;;;4973724;28;20586;-74
2023/08/30 12:16:30;;;;;;;4.20;1.90;;;19.10;99.90;;;;;;4973764;28;20213;-74
2023/08/30 12:18:56;;;;;;;3.20;1.80;;;19.10;99.90;;;;;;4972378;28;21017;-74
2023/08/30 12:21:22;;;;;;;4.47;1.67;;;19.10;99.90;;;;;;4987235;28;20670;-74
2023/08/30 12:23:47;;;;;;;2.60;1.90;;;19.10;99.90;;;;;;4975682;28;20586;-74
2023/08/30 12:26:13;;;;;;;3.30;1.40;;;19.10;99.90;;;;;;4957847;28;20179;-74
2023/08/30 12:28:40;;;;;;;3.00;1.50;;;19.10;99.90;;;;;;4974107;28;20266;-74
2023/08/30 12:34:53;;;;;;;5.43;3.30;;;19.00;99.90;;;;;;4975356;28;20553;-74
2023/08/30 12:37:19;;;;;;;2.00;1.50;;;18.90;99.90;;;;;;4973849;28;21208;-75
2023/08/30 12:39:45;;;;;;;1.73;1.20;;;18.80;99.90;;;;;;4973827;28;20187;-74
2023/08/30 12:42:11;;;;;;;3.57;1.63;;;18.70;99.90;;;;;;4958173;28;20179;-74
2023/08/30 12:44:37;;;;;;;2.17;1.10;;;18.60;99.90;;;;;;4975218;28;21246;-74
2023/08/30 12:47:03;;;;;;;2.47;1.00;;;18.60;99.90;;;;;;4961604;28;20207;-74
2023/08/30 12:49:29;;;;;;;2.90;0.97;;;18.50;99.90;;;;;;4976500;28;20231;-74
2023/08/30 12:51:55;;;;;;;1.50;0.80;;;18.50;99.90;;;;;;4952404;28;20586;-74
2023/08/30 12:54:20;;;;;;;2.30;1.03;;;18.50;99.90;;;;;;4994447;28;20179;-74
2023/08/30 12:56:46;;;;;;;1.70;0.90;;;18.40;99.90;;;;;;4994263;28;20202;-74
2023/08/30 12:59:12;;;;;;;2.00;1.00;;;18.40;99.90;;;;;;4982160;28;20593;-72
2023/08/30 13:01:37;;;;;;;2.10;1.13;;;18.30;99.90;;;;;;4974730;28;20179;-72
2023/08/30 13:04:03;;;;;;;1.60;0.90;;;18.30;99.90;;;;;;4957315;28;20298;-72
2023/08/30 13:06:29;;;;;;;1.40;0.80;;;18.30;99.90;;;;;;4957384;28;20666;-73
2023/08/30 13:08:55;;;;;;;1.80;0.93;;;18.30;99.90;;;;;;4967477;28;20585;-73
2023/08/30 13:11:21;;;;;;;1.83;0.90;;;18.30;99.90;;;;;;4994629;28;20171;-73
2023/08/30 13:13:46;;;;;;;1.50;0.87;;;18.30;99.90;;;;;;4976344;28;20178;-73
2023/08/30 13:16:12;;;;;;;1.60;0.80;;;18.30;99.90;;;;;;4993827;28;20230;-75
2023/08/30 13:18:38;;;;;;;1.70;0.80;;;18.30;99.90;;;;;;4993940;28;20678;-75
2023/08/30 13:21:04;;;;;;;3.00;1.60;;;18.30;99.90;;;;;;4960284;28;20183;-75
2023/08/30 13:23:29;;;;;;;1.93;1.20;;;18.30;99.90;;;;;;4976851;28;20171;-72
2023/08/30 13:25:55;;;;;;;3.17;1.30;;;18.30;99.90;;;;;;4960553;28;20649;-73
2023/08/30 13:28:21;;;;;;;2.00;1.23;;;18.30;99.90;;;;;;4976805;28;20606;-72
2023/08/30 13:30:47;;;;;;;3.00;1.80;;;18.30;99.90;;;;;;4998843;28;20171;-73
2023/08/30 13:33:12;;;;;;;2.80;1.53;;;18.30;99.90;;;;;;4997859;28;20175;-73
2023/08/30 13:35:41;;;;;;;1.87;1.17;;;18.40;99.90;;;;;;4997980;28;20579;-73
2023/08/30 13:38:07;;;;;;;2.00;1.00;;;18.40;99.90;;;;;;4997785;28;20217;-74
2023/08/30 13:40:32;;;;;;;1.80;0.97;;;18.40;99.90;;;;;;4996188;28;20566;-73
2023/08/30 13:42:58;;;;;;;1.80;0.80;;;18.40;99.90;;;;;;4979236;28;20175;-73
2023/08/30 13:45:24;;;;;;;1.50;0.77;;;18.40;99.90;;;;;;4994418;28;20194;-74
2023/08/30 13:47:53;;;;;;;1.60;0.70;;;18.50;99.90;;;;;;4976888;28;20199;-73
2023/08/30 13:50:19;;;;;;;1.63;0.80;;;18.50;99.90;;;;;;4993092;28;20570;-73
2023/08/30 13:52:45;;;;;;;1.80;0.90;;;18.60;99.90;;;;;;4993075;28;20586;-73
2023/08/30 13:55:11;;;;;;;1.90;0.90;;;18.50;99.90;;;;;;4976788;28;20606;-73
2023/08/30 13:57:37;;;;;;;2.63;1.27;;;18.50;99.90;;;;;;4977223;28;20313;-73
2023/08/30 14:00:08;;;;;;;2.33;1.30;;;18.50;99.90;;;;;;4978273;28;20181;-73
2023/08/30 14:02:33;;;;;;;2.17;1.37;;;18.50;99.90;;;;;;4976214;28;20586;-72
2023/08/30 14:04:59;;;;;;;2.23;1.40;;;18.50;99.90;;;;;;4959519;28;20733;-73
2023/08/30 14:07:25;;;;;;;2.43;1.40;;;18.50;99.90;;;;;;4973863;28;20270;-72
2023/08/30 14:09:51;;;;;;;4.30;1.60;;;18.50;99.90;;;;;;4991273;28;20171;-73
2023/08/30 14:12:17;;;;;;;4.07;1.00;;;18.40;99.90;;;;;;4974750;28;20214;-73
2023/08/30 14:14:43;;;;;;;1.70;1.13;;;18.40;99.90;;;;;;4992358;28;21125;-74
2023/08/30 14:17:08;;;;;;;2.40;1.27;;;18.30;99.90;;;;;;4992404;28;20198;-73
2023/08/30 14:19:35;;;;;;;3.00;1.03;;;18.30;99.90;;;;;;4992566;28;20186;-73
2023/08/30 14:22:03;;;;;;;1.73;0.90;;;18.30;99.90;;;;;;4992524;28;20182;-74
2023/08/30 14:24:29;;;;;;;1.70;1.03;;;18.30;99.90;;;;;;4959287;28;20641;-73
2023/08/30 14:26:55;;;;;;;1.77;1.17;;;18.30;99.90;;;;;;4975169;28;20614;-73
2023/08/30 14:29:24;;;;;;;4.97;2.77;;;18.20;99.90;;;;;;4975263;28;20312;-73
2023/08/30 14:31:49;;;;;;;6.63;5.10;;;18.20;99.90;;;;;;4992717;28;20542;-73
2023/08/30 14:34:15;;;;;;;3.40;2.80;;;18.20;99.90;;;;;;4975170;28;20585;-74
2023/08/30 14:36:42;;;;;;;4.87;2.00;;;18.10;99.90;;;;;;4995725;28;20202;-74